Time;durP1;ratioP1;P1;durP2;ratioP2;P2;SDS_P1;SDS_P2;PMS_P1;PMS_P2;Temp;Humidity;BMP_temperature;BMP_pressure;BME280_temperature;BME280_humidity;BME280_pressure;Samples;Min_cycle;Max_cycle;Signal;HPM_P1;HPM_P2
2024/04/08 00:00:54;;;;;;;13.60;5.72;;;;;;;;;;4974081;28;20032;-66
2024/04/08 00:03:20;;;;;;;10.90;4.63;;;;;;;;;;4973569;28;20539;-66
2024/04/08 00:05:45;;;;;;;10.68;4.72;;;;;;;;;;4982169;28;20037;-67
2024/04/08 00:08:11;;;;;;;20.23;5.28;;;;;;;;;;4982660;28;20018;-66
2024/04/08 00:10:36;;;;;;;7.85;5.30;;;;;;;;;;4973958;28;20039;-67
2024/04/08 00:13:01;;;;;;;14.30;5.95;;;;;;;;;;4978398;28;20026;-66
2024/04/08 00:15:27;;;;;;;13.80;5.07;;;;;;;;;;4988633;28;20030;-67
2024/04/08 00:17:52;;;;;;;11.07;4.32;;;;;;;;;;4992957;28;20030;-67
2024/04/08 00:20:19;;;;;;;18.85;5.07;;;;;;;;;;4984495;28;20027;-67
2024/04/08 00:22:46;;;;;;;12.98;6.18;;;;;;;;;;4981267;28;20035;-67
2024/04/08 00:25:12;;;;;;;10.23;4.32;;;;;;;;;;4973976;28;20018;-67
2024/04/08 00:27:37;;;;;;;14.50;4.38;;;;;;;;;;4973353;28;20429;-67
2024/04/08 00:30:04;;;;;;;13.07;4.75;;;;;;;;;;4973973;28;20105;-67
2024/04/08 00:32:29;;;;;;;17.90;4.78;;;;;;;;;;4977689;28;20022;-66
2024/04/08 00:34:55;;;;;;;8.70;4.85;;;;;;;;;;4977955;28;20650;-67
2024/04/08 00:37:20;;;;;;;12.35;4.28;;;;;;;;;;4978091;28;20039;-66
2024/04/08 00:39:45;;;;;;;8.57;3.80;;;;;;;;;;4977520;28;20077;-67
2024/04/08 00:42:11;;;;;;;7.70;4.25;;;;;;;;;;4978087;28;20477;-67
2024/04/08 00:44:36;;;;;;;9.95;6.18;;;;;;;;;;4977744;28;20025;-67
2024/04/08 00:47:02;;;;;;;10.48;4.03;;;;;;;;;;4977564;28;20026;-67
2024/04/08 00:49:28;;;;;;;8.85;4.45;;;;;;;;;;4992283;28;20038;-67
2024/04/08 00:51:54;;;;;;;6.65;3.63;;;;;;;;;;4976299;28;20125;-66
2024/04/08 00:54:20;;;;;;;13.18;4.22;;;;;;;;;;4992563;28;20031;-66
2024/04/08 00:56:45;;;;;;;4.88;3.75;;;;;;;;;;4976306;28;20503;-66
2024/04/08 00:59:13;;;;;;;6.40;3.33;;;;;;;;;;4977509;28;20103;-67
2024/04/08 01:01:39;;;;;;;6.70;3.80;;;;;;;;;;4977721;28;20018;-67
2024/04/08 01:04:05;;;;;;;7.05;3.50;;;;;;;;;;4977210;28;20405;-66
2024/04/08 01:06:30;;;;;;;9.77;4.50;;;;;;;;;;4977262;28;20031;-67
2024/04/08 01:08:55;;;;;;;10.05;3.95;;;;;;;;;;4977444;28;20388;-66
2024/04/08 01:11:21;;;;;;;6.90;4.05;;;;;;;;;;4991829;28;20029;-66
2024/04/08 01:13:46;;;;;;;5.47;3.53;;;;;;;;;;4977266;28;20488;-66
2024/04/08 01:16:11;;;;;;;6.22;3.10;;;;;;;;;;4976905;28;20456;-67
2024/04/08 01:18:37;;;;;;;8.25;3.10;;;;;;;;;;4977661;28;20023;-67
2024/04/08 01:21:03;;;;;;;7.63;3.97;;;;;;;;;;4977325;28;20101;-67
2024/04/08 01:23:29;;;;;;;12.07;4.40;;;;;;;;;;4976456;28;20408;-66
2024/04/08 01:25:55;;;;;;;7.47;3.55;;;;;;;;;;4976986;28;20019;-66
2024/04/08 01:28:21;;;;;;;7.55;3.83;;;;;;;;;;4976984;28;20026;-67
2024/04/08 01:30:49;;;;;;;8.48;3.75;;;;;;;;;;4991867;28;20027;-66
2024/04/08 01:33:15;;;;;;;8.95;5.45;;;;;;;;;;4976627;28;20035;-66
2024/04/08 01:35:40;;;;;;;13.68;5.90;;;;;;;;;;4977353;28;20037;-67
2024/04/08 01:38:06;;;;;;;17.40;5.95;;;;;;;;;;4976769;28;20052;-67
2024/04/08 01:40:31;;;;;;;8.68;5.18;;;;;;;;;;4976733;28;20019;-66
2024/04/08 01:42:56;;;;;;;9.73;4.53;;;;;;;;;;4976330;28;20023;-66
2024/04/08 01:45:22;;;;;;;9.20;4.78;;;;;;;;;;4976195;28;20023;-67
2024/04/08 01:47:47;;;;;;;7.25;3.97;;;;;;;;;;4976812;28;20026;-66
2024/04/08 01:50:13;;;;;;;16.35;6.03;;;;;;;;;;4976479;28;20473;-67
2024/04/08 01:52:38;;;;;;;14.15;4.65;;;;;;;;;;4976774;28;20035;-67
2024/04/08 01:55:03;;;;;;;13.52;4.97;;;;;;;;;;4978188;28;20399;-66
2024/04/08 01:57:29;;;;;;;13.80;4.95;;;;;;;;;;4999471;28;20026;-66
2024/04/08 01:59:54;;;;;;;12.77;4.60;;;;;;;;;;5009535;28;20434;-67
2024/04/08 02:02:20;;;;;;;9.15;4.65;;;;;;;;;;5014923;28;20025;-67
2024/04/08 02:04:45;;;;;;;12.05;4.85;;;;;;;;;;5014566;28;20033;-67
2024/04/08 02:07:10;;;;;;;9.07;4.68;;;;;;;;;;5014622;28;20037;-66
2024/04/08 02:09:36;;;;;;;11.02;3.70;;;;;;;;;;5010418;28;20038;-67
2024/04/08 02:12:02;;;;;;;9.43;3.65;;;;;;;;;;4993922;28;20481;-67
2024/04/08 02:14:27;;;;;;;11.25;4.45;;;;;;;;;;4996841;28;20384;-66
2024/04/08 02:16:52;;;;;;;9.27;4.15;;;;;;;;;;4994103;28;20098;-66
2024/04/08 02:19:18;;;;;;;12.02;4.53;;;;;;;;;;4983763;28;20024;-67
2024/04/08 02:21:43;;;;;;;14.25;5.22;;;;;;;;;;4977862;28;20026;-67
2024/04/08 02:24:08;;;;;;;14.32;5.57;;;;;;;;;;4991930;28;20488;-66
2024/04/08 02:26:34;;;;;;;11.20;5.50;;;;;;;;;;4994847;28;20037;-67
2024/04/08 02:28:59;;;;;;;13.43;6.10;;;;;;;;;;5005894;28;20533;-66
2024/04/08 02:31:25;;;;;;;16.80;5.90;;;;;;;;;;5014450;28;20029;-66
2024/04/08 02:33:51;;;;;;;14.30;4.82;;;;;;;;;;5014350;28;20026;-66
2024/04/08 02:36:16;;;;;;;10.90;5.35;;;;;;;;;;5013876;28;20052;-66
2024/04/08 02:38:42;;;;;;;15.02;6.45;;;;;;;;;;5014463;28;20476;-67
2024/04/08 02:41:07;;;;;;;10.40;5.93;;;;;;;;;;5014423;28;20067;-67
2024/04/08 02:43:33;;;;;;;12.98;5.63;;;;;;;;;;5014133;28;20032;-66
2024/04/08 02:45:58;;;;;;;23.13;7.25;;;;;;;;;;5013744;28;20549;-67
2024/04/08 02:48:23;;;;;;;14.20;6.18;;;;;;;;;;5014251;28;20024;-67
2024/04/08 02:50:49;;;;;;;15.93;6.07;;;;;;;;;;5014051;28;20026;-67
2024/04/08 02:53:14;;;;;;;15.13;7.13;;;;;;;;;;5014241;28;20018;-67
2024/04/08 02:55:40;;;;;;;15.70;5.70;;;;;;;;;;5012367;28;20022;-66
2024/04/08 02:58:05;;;;;;;19.25;6.45;;;;;;;;;;5014433;28;20030;-67
2024/04/08 03:00:31;;;;;;;16.58;7.25;;;;;;;;;;5013880;28;20022;-67
2024/04/08 03:02:56;;;;;;;16.50;6.30;;;;;;;;;;5013816;28;20018;-67
2024/04/08 03:05:22;;;;;;;18.90;6.93;;;;;;;;;;5013889;28;20038;-67
2024/04/08 03:07:50;;;;;;;11.40;6.07;;;;;;;;;;5013760;28;20038;-66
2024/04/08 03:10:15;;;;;;;13.48;5.88;;;;;;;;;;5013505;28;20030;-66
2024/04/08 03:12:40;;;;;;;12.38;5.40;;;;;;;;;;5013971;28;20469;-66
2024/04/08 03:15:06;;;;;;;11.48;5.78;;;;;;;;;;5014113;28;20026;-67
2024/04/08 03:17:31;;;;;;;13.32;6.20;;;;;;;;;;5013218;28;20518;-66
2024/04/08 03:19:58;;;;;;;11.20;5.57;;;;;;;;;;5013216;28;20022;-67
2024/04/08 03:22:23;;;;;;;12.23;6.45;;;;;;;;;;5013447;28;20037;-67
2024/04/08 03:24:48;;;;;;;14.57;6.18;;;;;;;;;;5013529;28;20380;-67
2024/04/08 03:27:14;;;;;;;11.88;6.72;;;;;;;;;;5013627;28;20029;-67
2024/04/08 03:29:39;;;;;;;12.02;6.53;;;;;;;;;;5013071;28;20026;-67
2024/04/08 03:32:05;;;;;;;12.95;6.53;;;;;;;;;;5000669;28;20028;-67
2024/04/08 03:34:35;;;;;;;10.32;6.07;;;;;;;;;;4977763;28;20023;-67
2024/04/08 03:37:01;;;;;;;12.10;5.68;;;;;;;;;;4974328;28;20081;-67
2024/04/08 03:39:26;;;;;;;15.45;5.88;;;;;;;;;;4989337;28;20025;-67
2024/04/08 03:41:53;;;;;;;11.30;5.35;;;;;;;;;;4993853;28;20462;-66
2024/04/08 03:44:18;;;;;;;14.27;5.15;;;;;;;;;;4976338;28;20030;-67
2024/04/08 03:46:44;;;;;;;10.05;4.95;;;;;;;;;;4993491;28;20030;-66
2024/04/08 03:49:09;;;;;;;14.98;5.85;;;;;;;;;;4999573;28;20029;-67
2024/04/08 03:51:34;;;;;;;10.27;5.22;;;;;;;;;;4993444;28;20100;-67
2024/04/08 03:54:00;;;;;;;14.40;5.32;;;;;;;;;;5005306;28;20032;-67
2024/04/08 03:56:25;;;;;;;8.52;4.72;;;;;;;;;;5012648;28;20040;-67
2024/04/08 03:58:50;;;;;;;15.02;5.63;;;;;;;;;;5012763;28;20026;-66
2024/04/08 04:01:16;;;;;;;9.18;5.20;;;;;;;;;;5013231;28;20021;-67
2024/04/08 04:03:41;;;;;;;15.85;5.03;;;;;;;;;;5012904;28;20472;-67
2024/04/08 04:06:07;;;;;;;10.85;5.22;;;;;;;;;;4993490;28;20030;-67
2024/04/08 04:08:32;;;;;;;18.80;4.95;;;;;;;;;;4973329;28;20424;-67
2024/04/08 04:10:58;;;;;;;9.82;4.63;;;;;;;;;;4980854;28;20018;-67
2024/04/08 04:13:23;;;;;;;8.88;4.40;;;;;;;;;;4996583;28;20058;-67
2024/04/08 04:15:49;;;;;;;9.07;3.80;;;;;;;;;;4994748;28;20035;-67
2024/04/08 04:18:14;;;;;;;21.38;4.43;;;;;;;;;;4973827;28;20033;-67
2024/04/08 04:20:45;;;;;;;15.13;5.43;;;;;;;;;;4981249;28;20077;-67
2024/04/08 04:23:10;;;;;;;;;;;;;;;;;;4989187;28;20485;-67
2024/04/08 04:25:36;;;;;;;10.10;4.03;;;;;;;;;;5003025;28;19959;-67
2024/04/08 04:28:02;;;;;;;12.20;4.70;;;;;;;;;;5012895;28;20957;-67
2024/04/08 04:30:27;;;;;;;9.02;3.22;;;;;;;;;;5012652;28;20395;-67
2024/04/08 04:32:52;;;;;;;13.40;4.28;;;;;;;;;;4983640;28;20397;-67
2024/04/08 04:35:18;;;;;;;9.48;3.60;;;;;;;;;;4973851;28;20030;-67
2024/04/08 04:37:43;;;;;;;7.82;4.38;;;;;;;;;;4974543;28;20037;-67
2024/04/08 04:40:09;;;;;;;9.20;3.58;;;;;;;;;;4993384;28;20018;-67
2024/04/08 04:42:35;;;;;;;11.20;4.45;;;;;;;;;;4992580;28;20416;-67
2024/04/08 04:45:00;;;;;;;12.38;4.18;;;;;;;;;;5004554;28;20029;-67
2024/04/08 04:47:26;;;;;;;6.40;3.13;;;;;;;;;;5011673;28;20064;-67
2024/04/08 04:49:51;;;;;;;6.40;3.60;;;;;;;;;;5012183;28;20387;-66
2024/04/08 04:52:16;;;;;;;12.40;4.00;;;;;;;;;;5012303;28;20040;-67
2024/04/08 04:54:42;;;;;;;8.52;3.95;;;;;;;;;;5012149;28;20036;-67
2024/04/08 04:57:07;;;;;;;8.02;3.33;;;;;;;;;;5011887;28;20625;-66
2024/04/08 04:59:32;;;;;;;8.00;3.38;;;;;;;;;;5011950;28;20018;-67
2024/04/08 05:01:58;;;;;;;9.13;3.63;;;;;;;;;;5011673;28;20018;-67
2024/04/08 05:04:23;;;;;;;7.57;3.60;;;;;;;;;;5012434;28;20600;-67
2024/04/08 05:06:48;;;;;;;6.07;2.88;;;;;;;;;;5011796;28;20026;-67
2024/04/08 05:09:14;;;;;;;6.32;3.47;;;;;;;;;;5012130;28;20042;-67
2024/04/08 05:11:39;;;;;;;7.35;3.33;;;;;;;;;;5011818;28;20178;-67
2024/04/08 05:14:05;;;;;;;5.78;3.22;;;;;;;;;;5012196;28;20043;-67
2024/04/08 05:16:31;;;;;;;7.57;3.20;;;;;;;;;;5011454;28;20060;-67
2024/04/08 05:18:56;;;;;;;7.18;2.95;;;;;;;;;;5014629;28;20036;-66
2024/04/08 05:21:21;;;;;;;8.32;2.85;;;;;;;;;;5015852;28;20057;-67
2024/04/08 05:23:48;;;;;;;6.40;3.00;;;;;;;;;;5015288;28;20079;-67
2024/04/08 05:26:15;;;;;;;10.88;2.78;;;;;;;;;;5015354;28;20424;-67
2024/04/08 05:28:41;;;;;;;9.95;3.72;;;;;;;;;;5014966;28;20030;-66
2024/04/08 05:31:06;;;;;;;8.48;3.75;;;;;;;;;;5015119;28;20022;-66
2024/04/08 05:33:31;;;;;;;9.38;3.53;;;;;;;;;;5015731;28;20026;-67
2024/04/08 05:35:57;;;;;;;8.30;3.40;;;;;;;;;;5015174;28;20022;-66
2024/04/08 05:38:23;;;;;;;9.07;3.38;;;;;;;;;;5015300;28;20030;-67
2024/04/08 05:40:49;;;;;;;7.35;3.42;;;;;;;;;;5030366;28;20084;-66
2024/04/08 05:43:15;;;;;;;10.82;3.15;;;;;;;;;;5015400;28;20022;-67
2024/04/08 05:45:40;;;;;;;12.85;3.15;;;;;;;;;;5015097;28;20032;-67
2024/04/08 05:48:06;;;;;;;14.20;3.25;;;;;;;;;;5015244;28;20092;-67
2024/04/08 05:50:31;;;;;;;8.85;3.22;;;;;;;;;;5015429;28;20026;-67
2024/04/08 05:52:57;;;;;;;10.30;3.22;;;;;;;;;;5014933;28;20026;-67
2024/04/08 05:55:22;;;;;;;8.88;3.08;;;;;;;;;;5014788;28;20022;-67
2024/04/08 05:57:48;;;;;;;6.25;3.22;;;;;;;;;;5014977;28;20388;-67
2024/04/08 06:00:18;;;;;;;9.32;3.33;;;;;;;;;;5015254;28;20026;-67
2024/04/08 06:02:44;;;;;;;9.02;2.90;;;;;;;;;;5014859;28;20518;-67
2024/04/08 06:05:10;;;;;;;6.20;2.95;;;;;;;;;;5014070;28;20025;-67
2024/04/08 06:07:36;;;;;;;10.90;3.22;;;;;;;;;;5015092;28;20068;-67
2024/04/08 06:10:01;;;;;;;10.13;3.70;;;;;;;;;;5014202;28;20038;-67
2024/04/08 06:12:26;;;;;;;11.43;3.22;;;;;;;;;;5014963;28;20018;-67
2024/04/08 06:14:52;;;;;;;8.40;5.00;;;;;;;;;;5014840;28;20476;-67
2024/04/08 06:17:17;;;;;;;9.65;3.97;;;;;;;;;;5036564;23;20045;-69
2024/04/08 06:19:42;;;;;;;11.02;3.45;;;;;;;;;;5014107;28;20071;-68
2024/04/08 06:22:08;;;;;;;9.85;4.18;;;;;;;;;;5014611;28;20032;-68
2024/04/08 06:24:34;;;;;;;16.73;4.38;;;;;;;;;;5015123;28;20026;-68
2024/04/08 06:26:59;;;;;;;10.40;4.22;;;;;;;;;;5015014;28;20022;-68
2024/04/08 06:29:24;;;;;;;7.22;4.30;;;;;;;;;;5013557;28;20022;-69
2024/04/08 06:31:50;;;;;;;10.63;4.50;;;;;;;;;;5014657;28;20468;-67
2024/04/08 06:34:15;;;;;;;13.25;4.97;;;;;;;;;;5014429;28;20025;-68
2024/04/08 06:36:41;;;;;;;6.85;3.63;;;;;;;;;;5014217;28;20040;-68
2024/04/08 06:39:07;;;;;;;15.82;5.20;;;;;;;;;;5013739;28;20025;-68
2024/04/08 06:41:34;;;;;;;16.35;4.95;;;;;;;;;;5014282;28;20053;-68
2024/04/08 06:43:59;;;;;;;9.98;5.28;;;;;;;;;;5013112;28;20037;-68
2024/04/08 06:46:25;;;;;;;14.48;6.22;;;;;;;;;;5012400;28;20022;-68
2024/04/08 06:48:50;;;;;;;12.55;5.05;;;;;;;;;;5014270;28;20029;-68
2024/04/08 06:51:15;;;;;;;12.55;5.43;;;;;;;;;;5013927;28;20391;-68
2024/04/08 06:53:41;;;;;;;12.55;5.90;;;;;;;;;;5014053;28;20026;-68
2024/04/08 06:56:06;;;;;;;17.45;5.82;;;;;;;;;;5014096;28;20075;-68
2024/04/08 06:58:32;;;;;;;14.68;5.75;;;;;;;;;;5013413;28;20037;-68
2024/04/08 07:00:57;;;;;;;10.30;4.72;;;;;;;;;;5013848;28;20025;-68
2024/04/08 07:03:23;;;;;;;15.43;5.20;;;;;;;;;;5013392;28;20167;-68
2024/04/08 07:05:48;;;;;;;10.25;5.18;;;;;;;;;;5013726;28;20022;-68
2024/04/08 07:08:16;;;;;;;11.18;4.93;;;;;;;;;;5012915;28;20041;-68
2024/04/08 07:10:44;;;;;;;11.40;4.55;;;;;;;;;;5012155;28;20029;-69
2024/04/08 07:13:09;;;;;;;12.32;4.43;;;;;;;;;;5013044;28;20028;-68
2024/04/08 07:15:35;;;;;;;10.00;4.35;;;;;;;;;;5013346;28;20022;-69
2024/04/08 07:18:00;;;;;;;12.27;4.60;;;;;;;;;;5013489;28;20034;-69
2024/04/08 07:20:25;;;;;;;9.90;4.30;;;;;;;;;;5012553;28;20373;-69
2024/04/08 07:22:51;;;;;;;11.23;3.92;;;;;;;;;;5014234;28;20030;-69
2024/04/08 07:25:16;;;;;;;8.80;4.57;;;;;;;;;;5013416;28;20026;-69
2024/04/08 07:27:42;;;;;;;9.48;4.50;;;;;;;;;;5013381;28;20483;-68
2024/04/08 07:30:07;;;;;;;11.93;4.25;;;;;;;;;;5013428;28;20032;-69
2024/04/08 07:32:33;;;;;;;7.70;3.60;;;;;;;;;;5013465;28;20096;-69
2024/04/08 07:34:58;;;;;;;12.48;4.43;;;;;;;;;;5012899;28;20034;-68
2024/04/08 07:37:25;;;;;;;10.75;3.90;;;;;;;;;;5012661;28;20101;-69
2024/04/08 07:39:51;;;;;;;7.97;3.25;;;;;;;;;;5011937;28;20099;-68
2024/04/08 07:42:16;;;;;;;9.90;3.47;;;;;;;;;;5012077;28;20017;-69
2024/04/08 07:44:41;;;;;;;10.63;3.17;;;;;;;;;;5011858;28;20036;-69
2024/04/08 07:47:07;;;;;;;7.22;3.20;;;;;;;;;;5012674;28;20533;-69
2024/04/08 07:49:32;;;;;;;5.80;2.92;;;;;;;;;;5012627;28;20032;-69
2024/04/08 07:51:58;;;;;;;11.68;4.25;;;;;;;;;;5012623;28;20032;-69
2024/04/08 07:54:23;;;;;;;11.98;3.25;;;;;;;;;;5013005;28;20022;-69
2024/04/08 07:56:48;;;;;;;11.32;3.22;;;;;;;;;;5012993;28;20025;-69
2024/04/08 07:59:14;;;;;;;7.38;2.65;;;;;;;;;;5013152;28;20022;-70
2024/04/08 08:01:39;;;;;;;5.88;2.92;;;;;;;;;;5012005;28;20044;-68
2024/04/08 08:04:04;;;;;;;8.68;3.80;;;;;;;;;;5012706;28;20063;-69
2024/04/08 08:06:30;;;;;;;12.13;2.97;;;;;;;;;;5012696;28;20022;-69
2024/04/08 08:08:55;;;;;;;8.40;3.55;;;;;;;;;;5012868;28;20372;-68
2024/04/08 08:11:20;;;;;;;8.50;3.38;;;;;;;;;;5012672;28;20030;-69
2024/04/08 08:13:46;;;;;;;9.25;3.25;;;;;;;;;;5012047;28;20475;-69
2024/04/08 08:16:11;;;;;;;4.78;2.80;;;;;;;;;;5012783;28;20037;-68
2024/04/08 08:18:37;;;;;;;6.85;2.60;;;;;;;;;;5012662;28;20447;-68
2024/04/08 08:21:02;;;;;;;4.90;3.03;;;;;;;;;;5013331;28;20022;-69
2024/04/08 08:23:28;;;;;;;7.07;3.25;;;;;;;;;;5012915;28;20475;-69
2024/04/08 08:25:53;;;;;;;6.72;3.05;;;;;;;;;;5011469;28;20026;-68
2024/04/08 08:28:20;;;;;;;5.07;2.83;;;;;;;;;;5012423;28;20038;-70
2024/04/08 08:30:46;;;;;;;3.80;2.72;;;;;;;;;;5012989;28;20054;-70
2024/04/08 08:33:11;;;;;;;5.85;2.42;;;;;;;;;;5013209;28;20026;-69
2024/04/08 08:35:37;;;;;;;8.38;2.72;;;;;;;;;;5012783;28;20036;-69
2024/04/08 08:38:03;;;;;;;6.95;3.38;;;;;;;;;;5011592;28;20032;-69
2024/04/08 08:40:28;;;;;;;4.63;2.38;;;;;;;;;;5013170;28;20372;-69
2024/04/08 08:42:57;;;;;;;5.63;2.42;;;;;;;;;;5027771;28;20026;-69
2024/04/08 08:45:23;;;;;;;10.05;3.75;;;;;;;;;;5012668;28;20021;-69
2024/04/08 08:47:48;;;;;;;6.20;2.45;;;;;;;;;;5011444;28;20448;-68
2024/04/08 08:50:14;;;;;;;6.38;2.15;;;;;;;;;;5012144;28;20491;-68
2024/04/08 08:52:39;;;;;;;6.07;2.60;;;;;;;;;;5013051;28;20476;-67
2024/04/08 08:55:05;;;;;;;7.80;2.15;;;;;;;;;;5015609;28;20037;-67
2024/04/08 08:57:30;;;;;;;11.90;3.17;;;;;;;;;;5015277;28;20084;-67
2024/04/08 08:59:57;;;;;;;5.53;2.50;;;;;;;;;;5016180;28;20026;-67
2024/04/08 09:02:25;;;;;;;7.93;2.40;;;;;;;;;;5016108;28;20101;-67
2024/04/08 09:04:50;;;;;;;4.55;2.15;;;;;;;;;;5016304;28;20100;-67
2024/04/08 09:07:15;;;;;;;11.88;2.65;;;;;;;;;;5015368;28;20479;-68
2024/04/08 09:09:52;;;;;;;7.18;2.10;;;;;;;;;;5015811;28;20030;-68
2024/04/08 09:12:17;;;;;;;6.50;3.05;;;;;;;;;;5014671;28;20539;-68
2024/04/08 09:14:42;;;;;;;4.80;2.03;;;;;;;;;;5015742;28;20032;-67
2024/04/08 09:17:08;;;;;;;14.02;3.28;;;;;;;;;;5016015;28;20373;-67
2024/04/08 09:19:35;;;;;;;6.38;2.47;;;;;;;;;;5014089;28;20025;-67
2024/04/08 09:22:00;;;;;;;6.43;2.03;;;;;;;;;;5015847;28;20025;-68
2024/04/08 09:24:25;;;;;;;6.65;2.85;;;;;;;;;;5015709;28;20467;-67
2024/04/08 09:26:54;;;;;;;6.63;2.42;;;;;;;;;;5015681;28;20026;-67
2024/04/08 09:29:19;;;;;;;7.82;2.30;;;;;;;;;;5015844;28;20030;-67
2024/04/08 09:31:45;;;;;;;7.05;2.20;;;;;;;;;;5015784;28;20033;-67
2024/04/08 09:34:11;;;;;;;6.25;2.50;;;;;;;;;;5015509;28;20491;-68
2024/04/08 09:36:37;;;;;;;4.70;3.20;;;;;;;;;;5015304;28;20506;-69
2024/04/08 09:39:03;;;;;;;9.23;3.10;;;;;;;;;;5014231;28;20036;-69
2024/04/08 09:41:29;;;;;;;6.50;3.25;;;;;;;;;;5015157;28;20029;-69
2024/04/08 09:43:55;;;;;;;8.23;3.15;;;;;;;;;;5014941;28;20391;-69
2024/04/08 09:46:21;;;;;;;6.75;3.47;;;;;;;;;;5014486;28;20017;-69
2024/04/08 09:48:46;;;;;;;8.80;3.22;;;;;;;;;;5014193;28;20112;-69
2024/04/08 09:51:13;;;;;;;9.93;3.00;;;;;;;;;;5015145;28;20029;-69
2024/04/08 09:53:38;;;;;;;7.55;3.08;;;;;;;;;;4998925;28;20109;-70
2024/04/08 09:56:05;;;;;;;6.57;3.40;;;;;;;;;;4994940;28;20396;-69
2024/04/08 09:58:33;;;;;;;8.48;2.83;;;;;;;;;;5002662;28;20549;-70
2024/04/08 10:01:03;;;;;;;4.57;2.80;;;;;;;;;;5015291;28;20025;-69
2024/04/08 10:03:31;;;;;;;9.38;3.50;;;;;;;;;;5013622;28;20387;-70
2024/04/08 10:05:57;;;;;;;5.80;3.40;;;;;;;;;;5014807;28;20105;-70
2024/04/08 10:08:23;;;;;;;4.85;3.10;;;;;;;;;;5013009;28;20448;-70
2024/04/08 10:10:48;;;;;;;7.47;3.28;;;;;;;;;;5015015;28;20076;-70
2024/04/08 10:13:13;;;;;;;7.50;3.60;;;;;;;;;;5013740;28;20022;-69
2024/04/08 10:15:39;;;;;;;5.18;3.50;;;;;;;;;;5014707;28;20014;-69
2024/04/08 10:18:06;;;;;;;9.38;3.38;;;;;;;;;;5014227;28;20026;-69
2024/04/08 10:20:31;;;;;;;5.90;3.33;;;;;;;;;;5014815;28;20025;-70
2024/04/08 10:22:57;;;;;;;6.95;4.10;;;;;;;;;;5014772;28;20072;-70
2024/04/08 10:25:40;;;;;;;10.57;4.03;;;;;;;;;;5014449;28;20057;-70
2024/04/08 10:28:17;;;;;;;8.18;3.55;;;;;;;;;;5013066;28;20472;-70
2024/04/08 10:30:44;;;;;;;7.97;3.40;;;;;;;;;;5012713;28;20105;-69
2024/04/08 10:33:13;;;;;;;8.65;3.40;;;;;;;;;;5014357;28;20484;-69
2024/04/08 10:35:39;;;;;;;15.23;4.45;;;;;;;;;;5014490;28;20540;-70
2024/04/08 10:38:04;;;;;;;9.57;3.95;;;;;;;;;;5014881;28;20033;-70
2024/04/08 10:40:30;;;;;;;7.90;3.85;;;;;;;;;;5013325;28;20037;-70
2024/04/08 10:42:56;;;;;;;5.57;4.30;;;;;;;;;;5014208;28;20080;-70
2024/04/08 10:45:22;;;;;;;8.15;3.55;;;;;;;;;;5014415;28;20053;-70
2024/04/08 10:47:47;;;;;;;6.03;3.58;;;;;;;;;;5013981;28;20064;-68
2024/04/08 10:50:13;;;;;;;10.43;4.88;;;;;;;;;;5014282;28;20121;-69
2024/04/08 10:52:41;;;;;;;8.70;4.97;;;;;;;;;;5014061;28;20080;-70
2024/04/08 10:55:10;;;;;;;10.18;5.50;;;;;;;;;;5014529;28;20029;-69
2024/04/08 10:57:35;;;;;;;11.52;5.50;;;;;;;;;;5013805;28;20072;-70
2024/04/08 11:00:01;;;;;;;9.93;4.47;;;;;;;;;;5014155;28;20021;-70
2024/04/08 11:02:26;;;;;;;7.55;5.03;;;;;;;;;;5012773;28;20049;-70
2024/04/08 11:04:53;;;;;;;16.58;4.65;;;;;;;;;;5014045;28;20025;-70
2024/04/08 11:07:18;;;;;;;8.40;4.18;;;;;;;;;;5012439;28;20480;-70
2024/04/08 11:09:43;;;;;;;14.88;4.57;;;;;;;;;;5013262;28;20037;-69
2024/04/08 11:12:12;;;;;;;6.30;4.60;;;;;;;;;;5013651;28;20030;-70
2024/04/08 11:16:10;;;;;;;7.40;3.70;;;;;;;;;;5507801;25;20356;-70
2024/04/08 11:18:37;;;;;;;10.05;3.53;;;;;;;;;;5508164;25;20009;-70
2024/04/08 11:21:02;;;;;;;8.73;4.07;;;;;;;;;;5500720;26;19995;-70
2024/04/08 11:23:27;;;;;;;11.02;3.70;;;;;;;;;;5470832;26;20424;-70
2024/04/08 11:25:54;;;;;;;12.23;2.90;;;;;;;;;;5487290;26;20473;-70
2024/04/08 11:28:23;;;;;;;4.70;2.30;;;;;;;;;;5506648;26;19990;-70
2024/04/08 11:30:48;;;;;;;4.57;1.85;;;;;;;;;;5508188;25;20005;-68
2024/04/08 11:33:14;;;;;;;6.63;2.80;;;;;;;;;;5508511;25;20388;-68
2024/04/08 11:35:39;;;;;;;5.88;2.88;;;;;;;;;;5507908;26;20435;-69
2024/04/08 11:38:06;;;;;;;6.78;3.53;;;;;;;;;;5507351;26;19997;-69
2024/04/08 11:40:31;;;;;;;9.52;3.63;;;;;;;;;;5508015;25;20458;-70
2024/04/08 11:42:56;;;;;;;7.70;3.50;;;;;;;;;;5506051;26;19994;-69
2024/04/08 11:45:22;;;;;;;8.00;3.25;;;;;;;;;;5507757;25;20086;-70
2024/04/08 11:47:47;;;;;;;9.45;3.00;;;;;;;;;;5507678;25;20487;-69
2024/04/08 11:50:12;;;;;;;9.90;4.43;;;;;;;;;;5507330;25;20001;-69
2024/04/08 11:52:38;;;;;;;6.78;3.10;;;;;;;;;;5508004;25;19998;-69
2024/04/08 11:55:03;;;;;;;6.93;3.40;;;;;;;;;;5505691;26;20475;-69
2024/04/08 11:57:29;;;;;;;7.50;3.28;;;;;;;;;;5507096;25;20009;-69
2024/04/08 11:59:54;;;;;;;6.07;3.38;;;;;;;;;;5507523;25;20001;-69
2024/04/08 12:02:21;;;;;;;7.93;3.55;;;;;;;;;;5507505;25;19994;-69
2024/04/08 12:04:46;;;;;;;10.98;3.15;;;;;;;;;;5508058;25;20005;-69
2024/04/08 12:07:12;;;;;;;8.52;3.60;;;;;;;;;;5506814;25;19994;-69
2024/04/08 12:09:41;;;;;;;7.32;4.28;;;;;;;;;;5508132;25;20474;-69
2024/04/08 12:12:09;;;;;;;7.88;3.22;;;;;;;;;;5507332;25;20022;-68
2024/04/08 12:14:34;;;;;;;4.72;2.97;;;;;;;;;;5508075;25;20004;-69
2024/04/08 12:16:59;;;;;;;7.25;3.08;;;;;;;;;;5509570;21;20353;-69
2024/04/08 12:19:24;;;;;;;8.02;2.63;;;;;;;;;;5434404;26;19995;-67
2024/04/08 12:21:50;;;;;;;8.13;2.95;;;;;;;;;;5434071;26;20011;-67
2024/04/08 12:24:15;;;;;;;9.15;4.10;;;;;;;;;;5434052;26;20033;-66
2024/04/08 12:26:40;;;;;;;7.00;3.67;;;;;;;;;;5423096;26;20008;-67
2024/04/08 12:29:06;;;;;;;11.98;4.18;;;;;;;;;;5418713;26;19999;-66
2024/04/08 12:31:31;;;;;;;7.05;3.17;;;;;;;;;;5418245;26;20036;-66
2024/04/08 12:33:56;;;;;;;5.78;3.38;;;;;;;;;;5418480;26;20023;-66
2024/04/08 12:36:22;;;;;;;6.43;3.10;;;;;;;;;;5418430;26;20023;-66
2024/04/08 12:38:47;;;;;;;8.85;3.40;;;;;;;;;;5419017;26;20436;-67
2024/04/08 12:41:12;;;;;;;7.10;3.25;;;;;;;;;;5417447;26;20011;-66
2024/04/08 12:43:39;;;;;;;6.28;3.03;;;;;;;;;;5418906;26;20114;-66
2024/04/08 12:46:05;;;;;;;6.82;5.15;;;;;;;;;;5418549;26;20329;-66
2024/04/08 12:48:30;;;;;;;7.35;3.30;;;;;;;;;;5418400;26;20007;-67
2024/04/08 12:50:56;;;;;;;7.80;3.17;;;;;;;;;;5411053;26;20420;-67
2024/04/08 12:53:21;;;;;;;8.35;3.25;;;;;;;;;;5381941;26;20032;-66
2024/04/08 12:55:50;;;;;;;8.68;3.47;;;;;;;;;;5401004;26;20036;-67
2024/04/08 12:58:15;;;;;;;10.70;3.30;;;;;;;;;;5418162;26;20197;-66
2024/04/08 13:00:41;;;;;;;4.95;3.03;;;;;;;;;;5417831;26;19999;-67
2024/04/08 13:03:06;;;;;;;9.32;3.60;;;;;;;;;;5381568;26;19996;-67
2024/04/08 13:05:32;;;;;;;6.13;3.63;;;;;;;;;;5382558;26;20359;-67
2024/04/08 13:07:57;;;;;;;7.32;2.90;;;;;;;;;;5400924;26;20077;-67
2024/04/08 13:10:23;;;;;;;8.57;2.97;;;;;;;;;;5418738;26;20012;-66
2024/04/08 13:12:48;;;;;;;5.63;2.92;;;;;;;;;;5417812;26;20045;-66
2024/04/08 13:15:14;;;;;;;9.02;3.20;;;;;;;;;;5417291;26;20007;-67
2024/04/08 13:17:39;;;;;;;6.47;3.60;;;;;;;;;;5418391;26;20000;-66
2024/04/08 13:20:05;;;;;;;7.60;2.60;;;;;;;;;;5418244;26;19996;-67
2024/04/08 13:22:31;;;;;;;5.80;2.58;;;;;;;;;;5417605;26;20012;-67
2024/04/08 13:24:57;;;;;;;8.60;2.92;;;;;;;;;;5417366;26;20429;-67
2024/04/08 13:27:22;;;;;;;6.65;2.92;;;;;;;;;;5410464;26;20000;-67
2024/04/08 13:29:47;;;;;;;5.88;3.28;;;;;;;;;;5382102;26;20020;-66
2024/04/08 13:32:13;;;;;;;7.10;3.25;;;;;;;;;;5391461;26;20003;-66
2024/04/08 13:34:38;;;;;;;9.88;4.45;;;;;;;;;;5417868;26;19996;-67
2024/04/08 13:37:03;;;;;;;5.50;3.40;;;;;;;;;;5417054;26;19995;-67
2024/04/08 13:39:29;;;;;;;9.18;3.08;;;;;;;;;;5417937;26;20034;-67
2024/04/08 13:41:54;;;;;;;8.90;2.80;;;;;;;;;;5417763;26;20445;-67
2024/04/08 13:44:20;;;;;;;6.40;2.92;;;;;;;;;;5417398;26;20027;-66
2024/04/08 13:46:45;;;;;;;6.97;3.03;;;;;;;;;;5417683;26;20366;-66
2024/04/08 13:49:10;;;;;;;6.25;2.78;;;;;;;;;;5417125;26;20003;-67
2024/04/08 13:51:36;;;;;;;7.22;3.70;;;;;;;;;;5417621;26;20007;-67
2024/04/08 13:54:01;;;;;;;7.05;2.78;;;;;;;;;;5417426;26;20031;-66
2024/04/08 13:56:26;;;;;;;5.63;3.08;;;;;;;;;;5417521;26;20391;-67
2024/04/08 13:58:51;;;;;;;8.20;3.30;;;;;;;;;;5416503;26;20035;-66
2024/04/08 14:01:17;;;;;;;6.28;2.60;;;;;;;;;;5417297;26;20007;-67
2024/04/08 14:03:42;;;;;;;9.45;3.05;;;;;;;;;;5417395;26;20437;-66
2024/04/08 14:06:08;;;;;;;5.32;3.47;;;;;;;;;;5417122;26;20385;-67
2024/04/08 14:08:34;;;;;;;4.70;2.53;;;;;;;;;;5417610;26;20040;-67
2024/04/08 14:11:00;;;;;;;7.97;3.83;;;;;;;;;;5417481;26;20032;-67
2024/04/08 14:13:25;;;;;;;5.85;2.97;;;;;;;;;;5416960;26;19996;-66
2024/04/08 14:15:50;;;;;;;6.65;2.65;;;;;;;;;;5417332;26;20003;-66
2024/04/08 14:18:17;;;;;;;8.07;2.58;;;;;;;;;;5417182;26;20007;-67
2024/04/08 14:20:42;;;;;;;10.07;3.42;;;;;;;;;;5417514;26;20007;-66
2024/04/08 14:23:08;;;;;;;11.02;2.70;;;;;;;;;;5414624;26;19996;-66
2024/04/08 14:25:34;;;;;;;5.85;2.72;;;;;;;;;;5417137;26;20003;-66
2024/04/08 14:28:00;;;;;;;6.68;2.50;;;;;;;;;;5417172;26;20420;-66
2024/04/08 14:30:26;;;;;;;8.38;2.50;;;;;;;;;;5417758;26;20113;-66